Time;durP1;ratioP1;P1;durP2;ratioP2;P2;SDS_P1;SDS_P2;PMS_P1;PMS_P2;Temp;Humidity;BMP_temperature;BMP_pressure;BME280_temperature;BME280_humidity;BME280_pressure;Samples;Min_cycle;Max_cycle;Signal;HPM_P1;HPM_P2
2023/03/25 00:01:12;;;;;;;10.75;5.25;;;;;;;14.89;51.31;99353.75;1458655;89;21585;-79
2023/03/25 00:03:37;;;;;;;7.90;5.40;;;;;;;14.84;51.57;99358.85;1425620;91;22309;-80
2023/03/25 00:06:06;;;;;;;6.80;5.00;;;;;;;14.81;51.52;99361.11;1454196;88;21331;-81
2023/03/25 00:08:33;;;;;;;11.27;6.70;;;;;;;14.78;51.69;99362.33;1450858;89;21405;-80
2023/03/25 00:11:03;;;;;;;9.93;5.50;;;;;;;14.73;51.95;99352.81;1430550;91;22281;-80
2023/03/25 00:13:30;;;;;;;8.93;5.67;;;;;;;14.71;51.93;99353.51;1456409;89;22811;-80
2023/03/25 00:15:57;;;;;;;13.83;7.10;;;;;;;14.68;52.18;99351.25;1449976;89;21368;-79
2023/03/25 00:18:28;;;;;;;9.03;4.63;;;;;;;14.66;52.32;99348.77;1362100;91;22148;-80
2023/03/25 00:20:55;;;;;;;9.05;5.22;;;;;;;14.65;52.16;99349.80;1523618;90;21133;-80
2023/03/25 00:23:22;;;;;;;7.57;5.37;;;;;;;14.62;52.26;99357.38;1454437;89;22314;-80
2023/03/25 00:25:51;;;;;;;10.13;6.07;;;;;;;14.58;52.25;99354.79;1425257;91;21378;-80
2023/03/25 00:28:17;;;;;;;10.37;6.00;;;;;;;14.55;52.77;99348.53;1450866;89;21456;-80
2023/03/25 00:30:44;;;;;;;9.37;5.00;;;;;;;14.51;52.55;99356.07;1448280;90;21426;-80
2023/03/25 00:33:12;;;;;;;8.57;5.37;;;;;;;14.49;52.87;99350.63;1423208;91;21333;-80
2023/03/25 00:35:47;;;;;;;11.67;6.27;;;;;;;14.44;52.92;99356.05;1461702;90;21560;-80
2023/03/25 00:38:14;;;;;;;13.90;5.47;;;;;;;14.40;53.33;99349.47;1431928;91;22439;-80
2023/03/25 00:40:40;;;;;;;7.83;6.10;;;;;;;14.36;53.38;99353.56;1450956;89;21383;-80
2023/03/25 00:43:06;;;;;;;11.10;6.17;;;;;;;14.30;53.64;99351.70;1455016;89;21353;-80
2023/03/25 00:45:33;;;;;;;9.73;5.13;;;;;;;14.25;53.78;99347.98;1408801;91;22851;-79
2023/03/25 00:48:00;;;;;;;10.67;5.63;;;;;;;14.21;53.82;99347.53;1457624;89;21369;-79
2023/03/25 00:50:26;;;;;;;10.80;5.50;;;;;;;14.18;54.35;99342.61;1430671;91;21446;-80
2023/03/25 00:52:53;;;;;;;12.63;5.90;;;;;;;14.15;54.26;99343.00;1451619;88;21531;-80
2023/03/25 00:55:20;;;;;;;11.13;5.57;;;;;;;14.13;54.72;99339.73;1427346;91;21431;-80
2023/03/25 00:57:47;;;;;;;11.07;6.90;;;;;;;14.11;54.51;99335.11;1450841;89;21699;-80
2023/03/25 01:00:16;;;;;;;7.40;6.47;;;;;;;14.08;54.63;99342.16;1426546;91;21386;-80
2023/03/25 01:02:44;;;;;;;12.98;8.50;;;;;;;14.04;54.96;99340.41;1450385;89;21390;-79
2023/03/25 01:05:11;;;;;;;14.00;8.63;;;;;;;13.99;55.12;99334.34;1422407;91;22397;-79
2023/03/25 01:07:40;;;;;;;11.80;8.00;;;;;;;13.98;55.01;99338.02;1454057;88;21398;-80
2023/03/25 01:10:08;;;;;;;18.83;9.10;;;;;;;13.95;55.41;99337.58;1455172;90;21486;-80
2023/03/25 01:12:35;;;;;;;12.20;7.00;;;;;;;13.90;55.66;99342.17;1454327;89;21384;-80
2023/03/25 01:15:01;;;;;;;11.67;6.23;;;;;;;13.86;55.69;99345.40;1430683;91;21349;-80
2023/03/25 01:17:27;;;;;;;10.23;6.13;;;;;;;13.83;55.91;99341.29;1450115;88;21478;-80
2023/03/25 01:19:53;;;;;;;13.43;6.67;;;;;;;13.78;56.21;99339.72;1460395;90;21383;-81
2023/03/25 01:22:19;;;;;;;11.40;6.87;;;;;;;13.75;56.16;99344.94;1426299;91;21438;-80
2023/03/25 01:24:46;;;;;;;11.43;7.60;;;;;;;13.72;56.25;99339.17;1446818;89;21397;-80
2023/03/25 01:27:12;;;;;;;8.93;6.30;;;;;;;13.68;56.32;99337.41;1429365;91;21424;-81
2023/03/25 01:29:38;;;;;;;14.93;6.60;;;;;;;13.62;56.77;99335.53;1450378;90;22343;-80
2023/03/25 01:32:05;;;;;;;8.73;6.70;;;;;;;13.57;56.86;99337.95;1432075;91;21530;-81
2023/03/25 01:34:37;;;;;;;11.47;7.30;;;;;;;13.53;56.85;99338.84;1456680;89;21286;-80
2023/03/25 01:37:01;;;;;;;14.13;7.87;;;;;;;13.50;57.00;99335.25;1428653;91;21682;-80
2023/03/25 01:39:27;;;;;;;15.00;7.83;;;;;;;13.45;57.25;99322.22;1433030;90;22321;-80
2023/03/25 01:41:54;;;;;;;13.87;7.90;;;;;;;13.42;57.55;99328.73;1421515;91;22421;-80
2023/03/25 01:44:26;;;;;;;10.43;7.30;;;;;;;13.37;57.66;99321.84;1451047;89;21376;-79
2023/03/25 01:46:53;;;;;;;14.20;7.17;;;;;;;13.34;58.06;99323.56;1429182;91;21416;-79
2023/03/25 01:49:37;;;;;;;11.20;6.97;;;;;;;13.28;58.03;99317.17;1455704;90;21331;-79
2023/03/25 01:52:10;;;;;;;11.27;6.40;;;;;;;13.22;58.50;99309.13;1453596;89;21553;-80
2023/03/25 01:54:38;;;;;;;12.53;7.07;;;;;;;13.14;58.91;99306.60;1427798;91;21401;-79
2023/03/25 01:57:07;;;;;;;14.47;8.33;;;;;;;13.04;59.36;99303.77;1456577;89;21479;-79
2023/03/25 01:59:34;;;;;;;13.40;6.97;;;;;;;12.94;59.56;99303.77;1428398;91;22243;-80
2023/03/25 02:02:05;;;;;;;10.23;7.33;;;;;;;12.85;59.64;99300.42;1455681;90;21368;-80
2023/03/25 02:04:45;;;;;;;12.63;7.63;;;;;;;12.76;60.03;99297.58;1427700;91;21268;-79
2023/03/25 02:07:15;;;;;;;10.25;7.12;;;;;;;12.67;60.03;99300.05;1451795;89;22245;-80
2023/03/25 02:09:40;;;;;;;10.50;7.03;;;;;;;12.59;60.43;99296.48;1421291;91;21400;-80
2023/03/25 02:12:07;;;;;;;8.37;6.17;;;;;;;12.52;60.71;99291.63;1455357;88;21643;-80
2023/03/25 02:14:36;;;;;;;11.63;6.60;;;;;;;12.47;61.63;99283.40;1456687;89;21464;-79
2023/03/25 02:17:28;;;;;;;14.70;6.60;;;;;;;12.46;61.80;99286.22;1428765;91;21481;-79
2023/03/25 02:20:53;;;;;;;12.10;7.07;;;;;;;12.44;62.34;99287.75;1450137;89;21479;-80
2023/03/25 02:23:56;;;;;;;14.47;7.40;;;;;;;12.42;62.07;99283.13;1425729;91;21600;-80
2023/03/25 02:27:04;;;;;;;13.57;7.83;;;;;;;12.38;61.91;99284.53;1433619;89;21538;-79
2023/03/25 02:30:05;;;;;;;11.90;6.97;;;;;;;12.36;61.71;99282.05;1428477;91;21437;-79
2023/03/25 02:33:15;;;;;;;22.10;9.10;;;;;;;12.34;62.26;99271.30;1451709;89;21463;-79
2023/03/25 02:36:22;;;;;;;9.90;7.93;;;;;;;12.30;61.82;99265.55;1451128;90;21876;-80
2023/03/25 02:39:20;;;;;;;10.87;6.37;;;;;;;12.20;62.28;99262.39;1425836;91;21533;-80
2023/03/25 02:41:58;;;;;;;16.50;7.10;;;;;;;12.10;62.46;99268.48;1450979;88;21450;-79
2023/03/25 02:44:32;;;;;;;11.33;7.43;;;;;;;12.03;62.54;99271.06;1426627;91;21371;-79
2023/03/25 02:47:03;;;;;;;11.47;7.33;;;;;;;11.96;62.94;99275.44;1464177;89;21482;-79
2023/03/25 02:49:38;;;;;;;12.60;8.33;;;;;;;11.89;62.88;99266.59;1425298;91;21756;-79
2023/03/25 02:52:18;;;;;;;13.47;6.10;;;;;;;11.88;63.28;99262.28;1448152;90;21534;-80
2023/03/25 02:54:48;;;;;;;13.03;6.67;;;;;;;11.87;63.99;99255.34;1449268;89;21493;-80
2023/03/25 02:57:18;;;;;;;8.90;6.33;;;;;;;11.86;64.02;99249.23;1426305;91;21475;-78
2023/03/25 02:59:47;;;;;;;10.40;6.50;;;;;;;11.87;64.55;99250.86;1454679;88;21458;-79
2023/03/25 03:02:18;;;;;;;13.03;7.80;;;;;;;11.86;64.12;99246.57;1452327;89;21347;-79
2023/03/25 03:04:55;;;;;;;12.40;6.12;;;;;;;11.81;64.02;99248.91;1425689;91;21363;-79
2023/03/25 03:07:30;;;;;;;13.43;7.87;;;;;;;11.74;65.54;99251.49;1449539;89;21383;-79
2023/03/25 03:10:21;;;;;;;12.93;7.30;;;;;;;11.71;64.63;99249.20;1428461;91;21407;-80
2023/03/25 03:13:11;;;;;;;11.53;6.47;;;;;;;11.68;64.54;99249.58;1452362;90;21748;-79
2023/03/25 03:16:08;;;;;;;14.50;6.10;;;;;;;11.65;64.48;99252.59;1402290;93;21562;-79
2023/03/25 03:18:47;;;;;;;18.37;8.23;;;;;;;11.63;64.43;99243.18;1457972;90;22225;-79
2023/03/25 03:21:22;;;;;;;9.87;7.40;;;;;;;11.60;64.66;99236.41;1432030;91;21378;-79
2023/03/25 03:24:11;;;;;;;9.50;6.90;;;;;;;11.59;64.84;99237.40;1456032;90;22446;-80
2023/03/25 03:26:58;;;;;;;18.57;8.27;;;;;;;11.58;64.63;99241.06;1421125;91;22501;-81
2023/03/25 03:29:38;;;;;;;9.73;6.43;;;;;;;11.60;64.69;99240.90;1450807;89;22514;-81
2023/03/25 03:32:19;;;;;;;14.57;8.70;;;;;;;11.59;64.63;99241.38;1428844;91;21327;-80
2023/03/25 03:34:51;;;;;;;10.60;6.73;;;;;;;11.57;64.35;99238.11;1451444;90;21398;-81
2023/03/25 03:37:35;;;;;;;14.53;7.47;;;;;;;11.56;64.65;99240.41;1424478;91;21445;-79
2023/03/25 03:40:05;;;;;;;10.87;6.60;;;;;;;11.57;64.90;99247.89;1452044;89;21302;-81
2023/03/25 03:42:39;;;;;;;11.18;7.00;;;;;;;11.58;64.98;99246.37;1455248;90;21317;-80
2023/03/25 03:45:20;;;;;;;12.33;6.40;;;;;;;11.61;65.00;99247.32;1425653;91;21445;-80
2023/03/25 03:47:50;;;;;;;14.80;6.95;;;;;;;11.63;64.52;99247.16;1449013;89;21585;-80
2023/03/25 03:50:27;;;;;;;10.25;6.83;;;;;;;11.64;64.31;99252.26;1425168;91;22347;-80
2023/03/25 03:53:24;;;;;;;11.63;6.57;;;;;;;11.64;64.34;99254.91;1445905;89;21442;-80
2023/03/25 03:55:55;;;;;;;11.83;6.77;;;;;;;11.63;64.23;99265.20;1426882;91;22279;-80
2023/03/25 03:58:24;;;;;;;;;;;;;;;11.60;64.41;99270.87;1452605;90;21537;-80
2023/03/25 04:01:11;;;;;;;11.10;7.33;;;;;;;11.56;65.16;99264.27;1456363;89;20298;-80
2023/03/25 04:03:47;;;;;;;15.17;6.90;;;;;;;11.54;64.29;99279.55;1433414;91;21415;-80
2023/03/25 04:06:27;;;;;;;10.97;6.90;;;;;;;11.46;64.50;99284.92;1442896;90;21361;-81
2023/03/25 04:09:03;;;;;;;12.68;7.00;;;;;;;11.38;64.70;99286.33;1425509;91;21622;-80
2023/03/25 04:11:40;;;;;;;12.93;7.13;;;;;;;11.29;64.66;99294.34;1459369;89;21464;-80
2023/03/25 04:14:09;;;;;;;14.53;7.30;;;;;;;11.21;65.37;99294.92;1414476;91;21400;-81
2023/03/25 04:16:36;;;;;;;13.80;6.97;;;;;;;11.15;65.75;99291.16;1455592;89;22349;-80
2023/03/25 04:19:05;;;;;;;13.80;7.40;;;;;;;11.12;65.83;99297.32;1429838;91;21400;-80
2023/03/25 04:21:32;;;;;;;13.07;6.90;;;;;;;11.08;65.65;99300.84;1450055;89;21427;-80
2023/03/25 04:24:00;;;;;;;11.80;6.90;;;;;;;11.08;65.89;99311.43;1425040;91;21542;-79
2023/03/25 04:26:32;;;;;;;14.37;7.87;;;;;;;11.04;66.45;99316.23;1448985;89;21398;-81
2023/03/25 04:28:58;;;;;;;13.27;7.37;;;;;;;10.99;66.20;99308.50;1424164;91;21621;-80
2023/03/25 04:31:24;;;;;;;9.30;7.40;;;;;;;10.95;66.25;99305.89;1452906;89;21346;-81
2023/03/25 04:33:51;;;;;;;10.60;6.87;;;;;;;10.88;66.71;99301.00;1428479;91;21386;-79
2023/03/25 04:36:18;;;;;;;12.67;7.63;;;;;;;10.85;67.43;99299.52;1452973;89;21338;-80
2023/03/25 04:38:45;;;;;;;12.37;7.03;;;;;;;10.82;67.17;99296.73;1429836;91;22524;-79
2023/03/25 04:41:12;;;;;;;16.93;7.27;;;;;;;10.82;67.39;99298.05;1449741;88;21331;-80
2023/03/25 04:43:39;;;;;;;12.57;7.30;;;;;;;10.83;67.29;99297.55;1431156;91;22382;-81
2023/03/25 04:46:08;;;;;;;12.47;7.30;;;;;;;10.81;67.35;99298.21;1447114;88;21569;-80
2023/03/25 04:48:40;;;;;;;11.90;8.03;;;;;;;10.81;67.11;99293.73;1432808;91;21713;-81
2023/03/25 04:51:04;;;;;;;13.33;8.87;;;;;;;10.80;67.11;99293.42;1438856;90;21346;-80
2023/03/25 04:53:30;;;;;;;14.93;8.83;;;;;;;10.80;67.57;99292.10;1425611;91;21609;-80
2023/03/25 04:55:57;;;;;;;13.40;7.93;;;;;;;10.80;67.52;99286.81;1449681;88;21383;-81
2023/03/25 04:58:23;;;;;;;10.03;7.73;;;;;;;10.86;67.53;99292.41;1422372;91;21422;-80
2023/03/25 05:00:51;;;;;;;13.03;8.27;;;;;;;10.89;67.73;99288.08;1453371;88;21287;-78
2023/03/25 05:03:23;;;;;;;16.63;8.43;;;;;;;10.93;67.40;99287.52;1452173;89;21442;-78
2023/03/25 05:05:52;;;;;;;13.27;7.37;;;;;;;10.96;67.31;99285.02;1430369;91;21371;-78
2023/03/25 05:08:24;;;;;;;14.47;7.53;;;;;;;10.99;67.22;99292.61;1445087;88;22226;-78
2023/03/25 05:10:48;;;;;;;14.07;7.67;;;;;;;11.00;66.68;99306.19;1450713;90;21441;-78
2023/03/25 05:13:14;;;;;;;10.60;7.73;;;;;;;10.98;66.63;99316.94;1422120;91;22340;-78
2023/03/25 05:15:42;;;;;;;11.43;8.53;;;;;;;10.98;66.75;99315.63;1450704;88;21854;-78
2023/03/25 05:18:14;;;;;;;11.50;7.07;;;;;;;10.98;66.71;99315.63;1451561;89;22378;-78
2023/03/25 05:20:45;;;;;;;11.83;6.83;;;;;;;10.96;66.81;99315.00;1444969;91;21482;-79
2023/03/25 05:23:17;;;;;;;18.98;8.23;;;;;;;10.95;66.77;99320.45;1455761;88;21383;-78
2023/03/25 05:25:46;;;;;;;10.73;7.10;;;;;;;10.93;67.29;99319.80;1406938;91;21416;-77
2023/03/25 05:28:13;;;;;;;15.57;7.83;;;;;;;10.92;67.52;99315.01;1453925;89;21354;-78
2023/03/25 05:30:41;;;;;;;13.67;7.30;;;;;;;10.93;67.38;99314.00;1428708;91;22332;-78
2023/03/25 05:33:12;;;;;;;15.27;7.80;;;;;;;10.94;67.38;99320.14;1456982;89;21618;-78
2023/03/25 05:35:40;;;;;;;12.93;7.27;;;;;;;10.95;67.16;99319.12;1431958;91;21371;-78
2023/03/25 05:38:07;;;;;;;10.93;8.47;;;;;;;10.95;67.08;99322.59;1450064;89;21655;-78
2023/03/25 05:40:35;;;;;;;12.13;7.93;;;;;;;10.94;67.09;99314.84;1427824;91;21493;-79
2023/03/25 05:43:02;;;;;;;16.37;7.73;;;;;;;10.95;67.73;99312.52;1454604;89;21376;-80
2023/03/25 05:45:28;;;;;;;43.70;9.47;;;;;;;10.94;67.43;99315.66;1426260;91;21357;-79
2023/03/25 05:47:55;;;;;;;11.53;7.83;;;;;;;10.95;67.47;99313.84;1452233;89;21382;-79
2023/03/25 05:50:22;;;;;;;16.53;7.80;;;;;;;10.99;67.58;99307.17;1422786;91;22339;-80
2023/03/25 05:52:50;;;;;;;21.23;8.90;;;;;;;11.02;67.54;99306.84;1456095;89;21376;-78
2023/03/25 05:55:21;;;;;;;13.17;7.67;;;;;;;11.06;67.57;99303.65;1420662;91;21463;-80
2023/03/25 05:57:47;;;;;;;13.48;8.63;;;;;;;11.12;67.48;99306.08;1454956;88;21546;-79
2023/03/25 06:00:18;;;;;;;11.80;8.83;;;;;;;11.17;67.43;99309.03;1446613;89;21428;-79
2023/03/25 06:02:44;;;;;;;13.90;8.43;;;;;;;11.21;67.86;99306.33;1423178;91;21498;-80
2023/03/25 06:05:15;;;;;;;16.87;8.07;;;;;;;11.23;68.69;99300.87;1454868;90;21434;-80
2023/03/25 06:07:46;;;;;;;11.75;7.92;;;;;;;11.24;67.92;99300.67;1447804;89;21398;-79
2023/03/25 06:10:16;;;;;;;;;;;;;;;11.22;69.53;99305.34;1430848;91;22273;-80
2023/03/25 06:12:45;;;;;;;16.03;7.73;;;;;;;11.20;70.53;99307.85;1418889;92;20407;-78
2023/03/25 06:15:14;;;;;;;15.53;7.97;;;;;;;11.21;70.54;99305.52;1458257;88;21265;-80
2023/03/25 06:17:40;;;;;;;11.40;7.10;;;;;;;11.21;70.78;99310.30;1425709;91;21399;-79
2023/03/25 06:20:11;;;;;;;17.03;7.60;;;;;;;11.29;70.64;99314.21;1457990;89;21383;-81
2023/03/25 06:22:42;;;;;;;8.95;7.37;;;;;;;11.36;71.45;99314.30;1423386;91;21526;-84
2023/03/25 06:25:09;;;;;;;;;;;;;;;11.41;71.50;99316.42;1455598;88;22456;-83
2023/03/25 06:27:39;;;;;;;14.17;8.63;;;;;;;11.46;72.20;99312.74;1454783;90;20305;-81
2023/03/25 06:30:07;;;;;;;17.07;12.67;;;;;;;11.46;71.32;99314.07;1445453;90;21404;-83
2023/03/25 06:32:33;;;;;;;18.20;9.10;;;;;;;11.46;71.61;99310.09;1456382;89;22233;-83
2023/03/25 06:34:59;;;;;;;12.57;8.63;;;;;;;11.45;71.33;99315.90;1423122;91;22524;-83
2023/03/25 06:37:27;;;;;;;13.50;7.77;;;;;;;11.46;71.53;99311.42;1448272;89;21919;-83
2023/03/25 06:43:54;;;;;;;21.05;8.13;;;;;;;11.50;71.79;99336.53;1451021;90;21368;-84
2023/03/25 06:46:20;;;;;;;13.23;9.40;;;;;;;11.50;72.66;99341.84;1454873;89;21435;-82
2023/03/25 06:48:46;;;;;;;14.90;9.60;;;;;;;11.49;72.75;99344.17;1431864;91;22406;-80
2023/03/25 06:51:13;;;;;;;12.73;8.77;;;;;;;11.48;72.83;99343.87;1446810;88;21877;-83
2023/03/25 06:53:39;;;;;;;15.93;10.53;;;;;;;11.48;73.78;99351.81;1427366;91;21564;-83
2023/03/25 06:56:06;;;;;;;20.83;11.47;;;;;;;11.49;73.48;99350.80;1455460;90;21457;-83
2023/03/25 06:58:34;;;;;;;19.17;12.17;;;;;;;11.46;73.58;99357.28;1451828;90;21548;-83
2023/03/25 07:01:04;;;;;;;17.63;10.27;;;;;;;11.44;73.15;99359.27;1452084;90;22383;-82
2023/03/25 07:03:30;;;;;;;15.05;10.30;;;;;;;11.43;73.50;99365.59;1442558;90;21442;-83
2023/03/25 07:05:58;;;;;;;16.13;10.53;;;;;;;11.43;73.75;99376.69;1452048;89;21383;-83
2023/03/25 07:08:24;;;;;;;15.20;9.73;;;;;;;11.45;74.29;99379.96;1453119;90;21338;-83
2023/03/25 07:10:51;;;;;;;17.03;10.00;;;;;;;11.49;74.05;99382.09;1449448;89;21468;-82
2023/03/25 07:13:17;;;;;;;15.33;9.47;;;;;;;11.51;74.36;99388.04;1455208;89;21441;-83
2023/03/25 07:15:43;;;;;;;13.67;9.57;;;;;;;11.47;74.12;99390.71;1453153;89;21398;-82
2023/03/25 07:18:09;;;;;;;13.33;9.00;;;;;;;11.37;74.38;99392.80;1431283;91;22391;-83
2023/03/25 07:20:35;;;;;;;14.73;9.80;;;;;;;11.27;74.59;99394.84;1452919;90;21428;-82
2023/03/25 07:23:02;;;;;;;19.67;8.23;;;;;;;11.19;75.12;99397.08;1429833;91;21356;-82
2023/03/25 07:25:28;;;;;;;11.50;8.33;;;;;;;11.15;75.74;99397.59;1451777;90;21391;-82
2023/03/25 07:27:54;;;;;;;12.80;9.43;;;;;;;11.13;76.09;99385.84;1431920;91;21460;-82
2023/03/25 07:30:20;;;;;;;15.73;10.60;;;;;;;11.13;76.62;99389.81;1447880;88;22396;-82
2023/03/25 07:32:46;;;;;;;16.93;10.43;;;;;;;11.15;76.92;99393.12;1452114;90;21464;-82
2023/03/25 07:35:12;;;;;;;13.73;10.00;;;;;;;11.15;77.38;99389.65;1456318;89;21537;-81
2023/03/25 07:37:39;;;;;;;16.97;10.97;;;;;;;11.16;78.90;99392.61;1450555;89;21375;-81
2023/03/25 07:40:07;;;;;;;15.97;10.57;;;;;;;11.17;78.74;99400.90;1454472;90;21556;-81
2023/03/25 07:42:36;;;;;;;13.83;9.30;;;;;;;11.18;78.94;99397.23;1453465;90;21567;-82
2023/03/25 07:45:04;;;;;;;11.87;8.60;;;;;;;11.14;79.29;99401.25;1425106;91;21290;-83
2023/03/25 07:47:31;;;;;;;15.77;10.17;;;;;;;11.09;80.01;99399.12;1451200;89;21338;-81
2023/03/25 07:49:57;;;;;;;18.27;9.33;;;;;;;11.06;81.12;99394.17;1450375;89;21382;-82
2023/03/25 07:52:23;;;;;;;17.93;11.00;;;;;;;11.04;80.81;99392.20;1427874;91;21556;-82
2023/03/25 07:54:49;;;;;;;18.40;12.17;;;;;;;11.01;81.22;99386.75;1456978;90;21434;-82
2023/03/25 07:57:16;;;;;;;19.03;11.07;;;;;;;11.00;81.76;99386.44;1450553;89;21612;-82
2023/03/25 07:59:42;;;;;;;15.40;11.10;;;;;;;11.02;83.01;99391.57;1452755;90;21361;-82
2023/03/25 08:02:14;;;;;;;39.30;12.53;;;;;;;11.03;82.85;99390.56;1413237;90;21570;-83
2023/03/25 08:04:41;;;;;;;18.55;11.00;;;;;;;11.07;83.34;99390.02;1488901;89;21375;-79
2023/03/25 08:07:07;;;;;;;13.57;10.43;;;;;;;11.14;83.66;99398.09;1458399;89;21441;-82
2023/03/25 08:09:34;;;;;;;16.47;10.97;;;;;;;11.20;83.77;99397.39;1454993;89;21397;-79
2023/03/25 08:12:00;;;;;;;20.90;13.53;;;;;;;11.23;84.23;99386.95;1438295;89;21382;-83
2023/03/25 08:14:27;;;;;;;23.83;15.23;;;;;;;11.24;84.39;99389.40;1452917;89;21324;-83
2023/03/25 08:16:53;;;;;;;24.13;15.00;;;;;;;11.28;85.49;99390.72;1453471;89;21523;-83
2023/03/25 08:19:19;;;;;;;28.20;15.53;;;;;;;11.34;84.56;99385.72;1446621;90;21330;-82
2023/03/25 08:21:45;;;;;;;25.47;15.80;;;;;;;11.40;84.21;99388.97;1445369;90;22307;-83
2023/03/25 08:24:12;;;;;;;20.30;13.70;;;;;;;11.43;85.56;99385.97;1456017;89;21442;-82
2023/03/25 08:26:38;;;;;;;22.40;12.77;;;;;;;11.51;85.14;99383.25;1456317;89;21618;-83
2023/03/25 08:29:06;;;;;;;14.00;8.67;;;;;;;11.59;85.72;99385.80;1457532;89;22263;-83
2023/03/25 08:31:32;;;;;;;10.43;8.17;;;;;;;11.68;85.34;99391.85;1429639;91;21923;-83
2023/03/25 08:34:03;;;;;;;9.83;8.00;;;;;;;11.72;85.11;99390.50;1453402;89;22927;-82
2023/03/25 08:36:29;;;;;;;;;;;;;;;11.78;89.10;99396.91;1430716;91;21430;-83
2023/03/25 08:38:55;;;;;;;14.63;9.60;;;;;;;11.78;90.81;99392.94;1419622;92;20773;-83
2023/03/25 08:41:23;;;;;;;12.37;9.03;;;;;;;11.80;91.44;99402.87;1453008;90;21354;-84
2023/03/25 08:43:49;;;;;;;10.90;8.20;;;;;;;11.81;91.99;99407.16;1427896;91;22273;-84
2023/03/25 08:46:15;;;;;;;12.30;9.63;;;;;;;11.81;93.42;99406.64;1454252;88;21464;-85
2023/03/25 08:48:42;;;;;;;19.67;12.13;;;;;;;11.80;92.76;99409.50;1432302;91;21327;-83
2023/03/25 08:51:09;;;;;;;13.53;11.17;;;;;;;11.81;93.23;99407.16;1448520;90;21555;-84
2023/03/25 08:53:35;;;;;;;13.73;10.97;;;;;;;11.80;94.84;99397.56;1453665;89;21383;-84
2023/03/25 08:56:02;;;;;;;11.77;8.70;;;;;;;11.82;93.33;99402.98;1446875;89;21353;-84
2023/03/25 08:58:28;;;;;;;10.13;9.10;;;;;;;11.83;94.22;99409.13;1423308;91;21887;-82
2023/03/25 09:00:57;;;;;;;13.80;10.17;;;;;;;11.84;95.79;99412.09;1454757;88;21353;-81
2023/03/25 09:03:25;;;;;;;11.30;9.00;;;;;;;11.86;93.94;99408.80;1453543;90;21549;-81
2023/03/25 09:05:52;;;;;;;12.33;9.27;;;;;;;11.88;94.63;99406.77;1427027;91;21468;-81
2023/03/25 09:08:19;;;;;;;9.13;7.67;;;;;;;11.89;95.59;99407.11;1449241;90;21368;-81
2023/03/25 09:10:45;;;;;;;11.50;7.90;;;;;;;11.93;96.38;99405.73;1453026;89;21397;-81
2023/03/25 09:13:11;;;;;;;9.37;7.57;;;;;;;11.92;95.59;99404.09;1445369;89;22293;-81
2023/03/25 09:15:37;;;;;;;11.40;7.77;;;;;;;11.92;96.49;99410.73;1431024;91;21394;-81
2023/03/25 09:18:04;;;;;;;8.43;7.13;;;;;;;11.91;97.21;99405.08;1459708;89;21464;-80
2023/03/25 09:20:31;;;;;;;7.87;6.13;;;;;;;11.88;96.33;99409.42;1427644;91;21401;-80
2023/03/25 09:22:58;;;;;;;8.27;5.93;;;;;;;11.86;100.00;99410.12;1448396;90;21531;-80
2023/03/25 09:25:26;;;;;;;7.93;6.37;;;;;;;11.85;100.00;99409.28;1430675;91;21378;-79
2023/03/25 09:27:52;;;;;;;8.27;6.73;;;;;;;11.82;100.00;99409.61;1445992;89;21448;-82
2023/03/25 09:30:18;;;;;;;7.53;6.47;;;;;;;11.85;100.00;99412.41;1459576;89;21382;-82
2023/03/25 09:32:45;;;;;;;11.90;7.67;;;;;;;11.86;100.00;99410.12;1420744;91;21678;-82
2023/03/25 09:35:11;;;;;;;10.63;5.43;;;;;;;11.93;100.00;99411.03;1452229;89;21353;-83
2023/03/25 09:37:37;;;;;;;7.03;5.50;;;;;;;12.01;100.00;99412.28;1430112;91;21385;-84
2023/03/25 09:40:05;;;;;;;7.93;6.13;;;;;;;12.08;100.00;99416.35;1457425;90;21427;-82
2023/03/25 09:42:48;;;;;;;7.77;5.50;;;;;;;12.21;100.00;99417.88;1455924;89;21411;-85
2023/03/25 09:45:32;;;;;;;10.00;6.83;;;;;;;12.32;100.00;99416.09;1425854;91;22428;-83
2023/03/25 09:48:40;;;;;;;9.23;7.37;;;;;;;12.42;99.37;99417.95;1455150;89;21470;-83
2023/03/25 09:51:17;;;;;;;19.90;12.03;;;;;;;12.49;100.00;99419.89;1452467;90;21451;-86
2023/03/25 09:54:23;;;;;;;9.63;7.43;;;;;;;12.52;100.00;99416.36;1451296;89;21516;-87
2023/03/25 09:56:50;;;;;;;9.13;6.57;;;;;;;12.58;100.00;99419.59;1419623;91;21408;-83
2023/03/25 09:59:22;;;;;;;19.60;11.60;;;;;;;12.47;100.00;99434.66;1451689;90;21294;-85
2023/03/25 10:02:00;;;;;;;16.20;10.37;;;;;;;12.40;100.00;99427.95;1453072;89;22211;-84
2023/03/25 10:04:49;;;;;;;17.83;9.63;;;;;;;12.33;100.00;99432.33;1447857;89;21567;-84
2023/03/25 10:07:41;;;;;;;19.63;12.00;;;;;;;12.35;100.00;99430.83;1434247;91;21581;-82
2023/03/25 10:10:31;;;;;;;9.47;7.60;;;;;;;12.32;100.00;99436.50;1455250;90;22284;-79
2023/03/25 10:13:15;;;;;;;10.33;8.43;;;;;;;12.34;100.00;99431.34;1429865;91;22449;-84
2023/03/25 10:15:56;;;;;;;7.33;6.53;;;;;;;12.46;100.00;99427.72;1448762;89;21488;-83
2023/03/25 10:18:40;;;;;;;7.15;6.45;;;;;;;12.66;100.00;99433.28;1422535;91;22354;-80
2023/03/25 10:21:26;;;;;;;12.23;5.63;;;;;;;12.82;100.00;99437.55;1451323;89;21516;-83
2023/03/25 10:24:01;;;;;;;5.30;4.80;;;;;;;12.98;100.00;99432.53;1457011;89;21626;-83
2023/03/25 10:26:38;;;;;;;7.10;6.00;;;;;;;13.12;100.00;99434.80;1434049;91;21385;-84
2023/03/25 10:29:08;;;;;;;9.73;7.07;;;;;;;13.16;98.95;99436.91;1454693;89;21611;-83
2023/03/25 10:31:40;;;;;;;5.85;5.10;;;;;;;13.22;98.85;99440.64;1431159;91;21459;-82
2023/03/25 10:34:11;;;;;;;6.23;4.43;;;;;;;13.18;97.45;99444.70;1449607;90;21427;-82
2023/03/25 10:36:43;;;;;;;6.20;5.03;;;;;;;13.13;97.40;99446.58;1460896;89;21479;-82
2023/03/25 10:39:19;;;;;;;8.30;5.13;;;;;;;13.73;100.00;99448.52;1426125;91;21589;-83
2023/03/25 10:41:51;;;;;;;9.17;6.07;;;;;;;13.53;100.00;99451.82;1455500;89;21449;-84
2023/03/25 10:44:21;;;;;;;7.30;4.77;;;;;;;13.35;100.00;99444.81;1420134;91;21443;-83
2023/03/25 10:46:52;;;;;;;4.87;4.20;;;;;;;13.21;97.89;99445.66;1457618;90;21361;-83
2023/03/25 10:49:23;;;;;;;5.93;5.10;;;;;;;13.24;97.72;99445.28;1427939;91;21415;-83
2023/03/25 10:51:56;;;;;;;6.72;4.70;;;;;;;13.29;98.99;99444.21;1460739;89;21412;-83
2023/03/25 10:54:30;;;;;;;4.10;3.33;;;;;;;13.37;98.02;99444.09;1446228;90;21383;-82
2023/03/25 10:57:01;;;;;;;4.90;4.07;;;;;;;13.29;94.79;99447.72;1425089;91;22230;-84
2023/03/25 10:59:40;;;;;;;7.17;3.90;;;;;;;13.34;94.67;99453.77;1445715;89;21836;-85
2023/03/25 11:02:24;;;;;;;3.40;2.93;;;;;;;13.33;94.99;99452.65;1449200;89;21531;-84
2023/03/25 11:04:59;;;;;;;3.47;2.70;;;;;;;13.34;94.09;99453.77;1437044;91;21586;-83
2023/03/25 11:07:36;;;;;;;3.37;2.63;;;;;;;13.35;93.88;99456.77;1453836;88;21456;-82
2023/03/25 11:10:14;;;;;;;6.20;3.60;;;;;;;13.40;93.01;99451.69;1454502;90;21515;-83
2023/03/25 11:12:46;;;;;;;4.57;3.77;;;;;;;13.46;92.69;99447.45;1426154;91;21940;-83
2023/03/25 11:15:21;;;;;;;4.20;3.80;;;;;;;13.49;91.68;99446.58;1450601;89;21339;-83
2023/03/25 11:18:06;;;;;;;4.00;3.00;;;;;;;13.51;91.19;99452.51;1453846;89;21508;-82
2023/03/25 11:20:40;;;;;;;4.10;2.90;;;;;;;13.59;90.89;99448.91;1428356;91;21563;-82
2023/03/25 11:23:17;;;;;;;3.20;2.27;;;;;;;13.63;91.08;99442.70;1451992;90;21427;-82
2023/03/25 11:25:44;;;;;;;3.37;2.77;;;;;;;13.61;89.89;99444.23;1443340;90;21367;-82
2023/03/25 11:28:26;;;;;;;4.97;3.73;;;;;;;13.73;90.85;99443.20;1454264;89;22261;-82
2023/03/25 11:31:18;;;;;;;3.83;2.60;;;;;;;13.79;91.12;99440.28;1430297;91;22048;-82
2023/03/25 11:33:49;;;;;;;3.77;2.80;;;;;;;13.92;92.12;99441.70;1456804;89;21427;-81
2023/03/25 11:36:21;;;;;;;4.53;3.00;;;;;;;14.05;92.52;99446.31;1443919;91;21349;-81
2023/03/25 11:38:58;;;;;;;6.73;2.60;;;;;;;14.08;90.69;99443.27;1450678;89;21426;-82
2023/03/25 11:41:34;;;;;;;3.17;2.60;;;;;;;14.08;89.58;99445.92;1418422;91;21378;-82
2023/03/25 11:44:05;;;;;;;4.37;2.57;;;;;;;13.96;88.29;99438.47;1452588;88;21569;-82
2023/03/25 11:46:34;;;;;;;4.13;3.03;;;;;;;13.87;88.32;99448.12;1454209;89;21405;-83
2023/03/25 11:49:10;;;;;;;3.10;2.80;;;;;;;13.79;88.70;99450.41;1435453;91;22295;-81
2023/03/25 11:51:37;;;;;;;4.63;3.37;;;;;;;13.73;88.55;99452.52;1452454;88;22022;-83